Terminal Aerodrome Forecast
Issued by NWS

Home | Current Version | Previous Version | Text Only | Print | Product List | Glossary On
Versions: 1 2 3 4 5 6 7 8 9 10 11 12 13 14 15 16
000
FTUS43 KILX 022327
TAFCMI
TAF
KCMI 022327Z 0300/0324 20006KT P6SM SCT060 BKN250
      TEMPO 0308/0312 4SM BR
     FM031800 22007KT P6SM BKN060=

USA.gov is the U.S. government's official web portal to all federal, state and local government web resources and services.